createdAt,value
2018-09-03T00:01:42.069Z,5.90
2018-09-03T00:04:09.275Z,6.73
2018-09-03T00:06:36.841Z,7.30
2018-09-03T00:09:06.776Z,6.53
2018-09-03T00:11:33.985Z,6.83
2018-09-03T00:14:01.270Z,8.07
2018-09-03T00:16:28.501Z,7.90
2018-09-03T00:18:55.707Z,7.33
2018-09-03T00:21:22.943Z,7.40
2018-09-03T00:23:50.322Z,6.40
2018-09-03T00:26:17.531Z,7.47
2018-09-03T00:28:44.757Z,7.87
2018-09-03T00:31:17.814Z,7.47
2018-09-03T00:33:50.816Z,7.40
2018-09-03T00:36:23.660Z,9.27
2018-09-03T00:38:56.620Z,9.87
2018-09-03T00:41:29.688Z,7.70
2018-09-03T00:44:02.618Z,8.67
2018-09-03T00:46:35.590Z,8.93
2018-09-03T00:49:02.870Z,7.73
2018-09-03T00:51:30.062Z,8.57
2018-09-03T00:53:57.396Z,8.03
2018-09-03T00:56:24.654Z,8.03
2018-09-03T00:58:52.016Z,8.17
2018-09-03T01:01:19.361Z,8.10
2018-09-03T01:03:47.235Z,11.23
2018-09-03T01:06:14.499Z,8.90
2018-09-03T01:08:41.737Z,8.77
2018-09-03T01:11:09.078Z,9.27
2018-09-03T01:13:36.304Z,9.93
2018-09-03T01:16:03.524Z,10.03
2018-09-03T01:18:35.368Z,8.63
2018-09-03T01:21:02.605Z,12.03
2018-09-03T01:23:29.808Z,9.30
2018-09-03T01:25:57.032Z,10.47
2018-09-03T01:28:24.290Z,9.70
2018-09-03T01:30:56.501Z,9.97
2018-09-03T01:33:23.760Z,9.10
2018-09-03T01:35:51.096Z,10.90
2018-09-03T01:38:18.440Z,9.53
2018-09-03T01:40:45.709Z,8.70
2018-09-03T01:43:12.968Z,10.27
2018-09-03T01:45:40.260Z,9.93
2018-09-03T01:48:07.521Z,9.77
2018-09-03T01:50:34.713Z,13.97
2018-09-03T01:53:01.914Z,8.97
2018-09-03T01:55:29.277Z,9.93
2018-09-03T01:57:56.614Z,10.57
2018-09-03T02:00:23.937Z,10.00
2018-09-03T02:02:51.221Z,9.30
2018-09-03T02:05:18.493Z,10.47
2018-09-03T02:07:45.837Z,10.07
2018-09-03T02:10:13.202Z,10.63
2018-09-03T02:12:40.502Z,12.23
2018-09-03T02:15:07.904Z,11.33
2018-09-03T02:17:35.208Z,10.40
2018-09-03T02:20:02.468Z,10.90
2018-09-03T02:22:29.682Z,11.77
2018-09-03T02:24:56.985Z,11.67
2018-09-03T02:27:24.324Z,10.13
2018-09-03T02:29:51.588Z,12.13
2018-09-03T02:32:18.775Z,11.30
2018-09-03T02:34:46.038Z,10.40
2018-09-03T02:37:13.289Z,13.30
2018-09-03T02:39:40.565Z,11.20
2018-09-03T02:42:08.150Z,11.40
2018-09-03T02:44:35.356Z,9.93
2018-09-03T02:47:02.765Z,10.27
2018-09-03T02:49:30.028Z,11.27
2018-09-03T02:51:57.311Z,10.10
2018-09-03T02:54:24.528Z,11.00
2018-09-03T02:56:51.768Z,10.63
2018-09-03T02:59:19.085Z,10.60
2018-09-03T03:01:46.390Z,13.23
2018-09-03T03:04:13.633Z,11.70
2018-09-03T03:06:41.418Z,12.17
2018-09-03T03:09:08.873Z,11.43
2018-09-03T03:11:36.906Z,13.57
2018-09-03T03:14:04.210Z,14.77
2018-09-03T03:16:31.580Z,13.03
2018-09-03T03:18:58.882Z,19.00
2018-09-03T03:21:27.119Z,13.97
2018-09-03T03:23:54.348Z,13.70
2018-09-03T03:26:21.597Z,14.70
2018-09-03T03:28:48.869Z,15.27
2018-09-03T03:31:16.223Z,14.43
2018-09-03T03:33:43.436Z,16.23
2018-09-03T03:36:10.914Z,15.57
2018-09-03T03:38:38.990Z,15.63
2018-09-03T03:41:06.332Z,15.03
2018-09-03T03:43:33.658Z,14.40
2018-09-03T03:46:00.995Z,16.33
2018-09-03T03:48:28.404Z,13.67
2018-09-03T03:50:55.733Z,19.40
2018-09-03T03:53:23.106Z,16.33
2018-09-03T03:55:50.411Z,17.97
2018-09-03T03:58:17.565Z,15.20
2018-09-03T04:00:44.817Z,15.60
2018-09-03T04:03:12.090Z,14.57
2018-09-03T04:05:39.322Z,15.20
2018-09-03T04:08:06.619Z,14.83
2018-09-03T04:10:33.920Z,15.60
2018-09-03T04:13:04.787Z,15.70
2018-09-03T04:15:34.076Z,14.37
2018-09-03T04:18:05.920Z,13.77
2018-09-03T04:20:34.188Z,14.97
2018-09-03T04:23:01.433Z,18.70
2018-09-03T04:25:29.667Z,15.13
2018-09-03T04:27:56.909Z,17.00
2018-09-03T04:30:24.170Z,16.10
2018-09-03T04:32:51.601Z,18.40
2018-09-03T04:35:18.814Z,15.00
2018-09-03T04:37:46.033Z,14.93
2018-09-03T04:40:13.895Z,15.43
2018-09-03T04:42:41.228Z,16.27
2018-09-03T04:45:09.610Z,17.40
2018-09-03T04:47:37.828Z,14.30
2018-09-03T04:50:05.267Z,15.90
2018-09-03T04:52:32.579Z,16.13
2018-09-03T04:54:59.876Z,14.63
2018-09-03T04:57:27.058Z,14.37
2018-09-03T04:59:54.327Z,17.60
2018-09-03T05:02:21.637Z,16.97
2018-09-03T05:04:48.992Z,14.60
2018-09-03T05:07:16.154Z,16.80
2018-09-03T05:09:43.793Z,18.63
2018-09-03T05:12:11.052Z,17.77
2018-09-03T05:14:38.438Z,15.87
2018-09-03T05:17:05.955Z,16.03
2018-09-03T05:19:33.399Z,15.93
2018-09-03T05:22:00.856Z,16.37
2018-09-03T05:24:32.409Z,16.17
2018-09-03T05:26:59.762Z,18.40
2018-09-03T05:29:26.989Z,15.40
2018-09-03T05:31:54.273Z,17.23
2018-09-03T05:34:22.763Z,17.87
2018-09-03T05:36:50.045Z,16.53
2018-09-03T05:39:17.781Z,19.80
2018-09-03T05:41:45.151Z,18.63
2018-09-03T05:44:12.786Z,20.43
2018-09-03T05:46:39.996Z,20.47
2018-09-03T05:49:07.495Z,18.67
2018-09-03T05:51:35.887Z,20.47
2018-09-03T05:54:03.132Z,18.23
2018-09-03T05:56:30.603Z,20.73
2018-09-03T05:58:58.304Z,18.93
2018-09-03T06:01:25.727Z,19.07
2018-09-03T06:03:54.304Z,21.83
2018-09-03T06:06:21.900Z,18.10
2018-09-03T06:08:49.545Z,23.33
2018-09-03T06:11:17.180Z,22.97
2018-09-03T06:13:44.617Z,22.77
2018-09-03T06:16:12.821Z,21.87
2018-09-03T06:18:40.874Z,22.77
2018-09-03T06:21:08.847Z,20.77
2018-09-03T06:23:36.158Z,19.47
2018-09-03T06:26:05.525Z,22.10
2018-09-03T06:28:37.547Z,17.60
2018-09-03T06:31:05.628Z,18.50
2018-09-03T06:33:32.889Z,19.33
2018-09-03T06:36:00.933Z,21.90
2018-09-03T06:38:29.006Z,21.40
2018-09-03T06:40:57.265Z,20.47
2018-09-03T06:43:24.683Z,23.83
2018-09-03T06:45:52.626Z,24.60
2018-09-03T06:48:20.080Z,19.53
2018-09-03T06:50:47.613Z,20.00
2018-09-03T06:53:16.776Z,22.00
2018-09-03T06:55:48.016Z,20.17
2018-09-03T06:58:15.487Z,23.43
2018-09-03T07:00:47.838Z,24.80
2018-09-03T07:03:16.588Z,24.00
2018-09-03T07:05:43.881Z,22.77
2018-09-03T07:08:11.213Z,22.10
2018-09-03T07:10:38.472Z,26.67
2018-09-03T07:13:06.763Z,26.60
2018-09-03T07:15:35.508Z,22.03
2018-09-03T07:18:03.415Z,29.83
2018-09-03T07:20:30.775Z,22.43
2018-09-03T07:22:59.474Z,24.17
2018-09-03T07:25:26.896Z,21.70
2018-09-03T07:27:55.043Z,23.27
2018-09-03T07:30:23.759Z,18.30
2018-09-03T07:32:51.063Z,19.03
2018-09-03T07:35:19.081Z,16.50
2018-09-03T07:37:46.455Z,23.60
2018-09-03T07:40:14.816Z,25.83
2018-09-03T07:42:42.244Z,48.93
2018-09-03T07:45:10.299Z,52.63
2018-09-03T07:47:37.705Z,28.53
2018-09-03T07:50:05.049Z,80.10
2018-09-03T07:52:34.321Z,49.47
2018-09-03T07:55:01.713Z,25.60
2018-09-03T07:57:29.023Z,26.53
2018-09-03T07:59:56.606Z,34.60
2018-09-03T08:02:23.888Z,29.00
2018-09-03T08:04:51.186Z,46.50
2018-09-03T08:07:18.879Z,24.80
2018-09-03T08:09:47.268Z,22.20
2018-09-03T08:12:14.933Z,34.50
2018-09-03T08:14:42.570Z,24.63
2018-09-03T08:17:09.933Z,22.47
2018-09-03T08:19:37.775Z,21.57
2018-09-03T08:22:05.256Z,30.07
2018-09-03T08:24:32.821Z,34.60
2018-09-03T08:27:00.389Z,87.53
2018-09-03T08:29:27.616Z,39.37
2018-09-03T08:31:55.164Z,27.33
2018-09-03T08:34:22.753Z,23.90
2018-09-03T08:36:51.128Z,23.70
2018-09-03T08:39:35.710Z,27.33
2018-09-03T08:42:03.220Z,28.60
2018-09-03T08:44:30.644Z,28.57
2018-09-03T08:47:02.837Z,28.40
2018-09-03T08:49:30.304Z,29.13
2018-09-03T08:51:58.507Z,29.33
2018-09-03T08:54:25.866Z,31.13
2018-09-03T08:56:54.063Z,30.03
2018-09-03T08:59:21.503Z,25.60
2018-09-03T09:01:49.077Z,26.50
2018-09-03T09:04:16.342Z,24.90
2018-09-03T09:06:43.643Z,27.13
2018-09-03T09:09:11.092Z,34.43
2018-09-03T09:11:38.739Z,43.20
2018-09-03T09:14:06.145Z,34.83
2018-09-03T09:16:33.463Z,27.80
2018-09-03T09:19:03.088Z,28.97
2018-09-03T09:21:30.541Z,28.97
2018-09-03T09:24:01.731Z,25.57
2018-09-03T09:26:31.252Z,33.80
2018-09-03T09:28:58.774Z,23.10
2018-09-03T09:31:27.185Z,24.80
2018-09-03T09:33:56.558Z,24.30
2018-09-03T09:36:23.855Z,28.33
2018-09-03T09:38:51.182Z,24.03
2018-09-03T09:41:19.215Z,32.60
2018-09-03T09:43:47.265Z,26.10
2018-09-03T09:46:14.780Z,25.80
2018-09-03T09:48:42.089Z,25.87
2018-09-03T09:51:10.518Z,25.27
2018-09-03T09:53:37.873Z,20.50
2018-09-03T09:56:05.194Z,21.53
2018-09-03T09:58:32.525Z,29.07
2018-09-03T10:01:05.589Z,21.60
2018-09-03T10:03:33.355Z,25.47
2018-09-03T10:06:00.652Z,28.27
2018-09-03T10:08:27.994Z,23.47
2018-09-03T10:10:55.596Z,20.90
2018-09-03T10:13:23.453Z,21.87
2018-09-03T10:15:50.909Z,21.40
2018-09-03T10:18:18.580Z,24.23
2018-09-03T10:20:46.217Z,21.47
2018-09-03T10:23:13.508Z,24.53
2018-09-03T10:25:41.296Z,21.00
2018-09-03T10:28:08.690Z,21.73
2018-09-03T10:30:36.229Z,20.87
2018-09-03T10:33:04.022Z,22.87
2018-09-03T10:35:31.822Z,22.20
2018-09-03T10:37:59.388Z,20.67
2018-09-03T10:40:27.070Z,17.90
2018-09-03T10:42:55.378Z,21.77
2018-09-03T10:45:23.120Z,18.03
2018-09-03T10:47:50.556Z,16.90
2018-09-03T10:50:19.513Z,20.73
2018-09-03T10:52:47.147Z,66.67
2018-09-03T10:55:14.914Z,22.93
2018-09-03T10:57:42.952Z,20.50
2018-09-03T11:00:10.690Z,21.60
2018-09-03T11:02:38.414Z,22.23
2018-09-03T11:05:06.944Z,19.70
2018-09-03T11:07:34.420Z,16.97
2018-09-03T11:10:02.519Z,17.50
2018-09-03T11:12:30.232Z,18.20
2018-09-03T11:14:57.750Z,16.93
2018-09-03T11:17:31.756Z,20.93
2018-09-03T11:20:01.055Z,25.87
2018-09-03T11:22:29.288Z,21.53
2018-09-03T11:24:57.683Z,21.00
2018-09-03T11:27:24.962Z,26.43
2018-09-03T11:29:55.187Z,20.57
2018-09-03T11:32:23.014Z,18.87
2018-09-03T11:34:50.926Z,19.03
2018-09-03T11:37:18.156Z,33.90
2018-09-03T11:39:45.504Z,22.40
2018-09-03T11:42:12.861Z,20.60
2018-09-03T11:44:40.195Z,22.53
2018-09-03T11:47:07.575Z,22.00
2018-09-03T11:49:34.752Z,20.30
2018-09-03T11:52:02.805Z,30.63
2018-09-03T11:54:30.180Z,32.17
2018-09-03T11:56:57.413Z,32.60
2018-09-03T11:59:25.458Z,38.10
2018-09-03T12:01:52.759Z,24.13
2018-09-03T12:04:19.909Z,32.63
2018-09-03T12:06:48.255Z,38.13
2018-09-03T12:09:15.461Z,23.20
2018-09-03T12:11:42.925Z,24.23
2018-09-03T12:14:19.115Z,26.67
2018-09-03T12:16:46.604Z,24.10
2018-09-03T12:19:14.152Z,23.27
2018-09-03T12:21:43.226Z,24.70
2018-09-03T12:24:10.736Z,23.47
2018-09-03T12:26:38.318Z,21.13
2018-09-03T12:29:06.569Z,20.60
2018-09-03T12:31:40.216Z,25.10
2018-09-03T12:34:07.705Z,24.97
2018-09-03T12:36:35.126Z,23.13
2018-09-03T12:39:02.862Z,22.47
2018-09-03T12:41:30.221Z,24.87
2018-09-03T12:43:57.892Z,27.10
2018-09-03T12:46:26.228Z,25.90
2018-09-03T12:48:53.610Z,23.63
2018-09-03T12:51:21.828Z,20.60
2018-09-03T12:53:50.023Z,21.43
2018-09-03T12:56:17.376Z,26.80
2018-09-03T12:58:44.751Z,26.00
2018-09-03T13:01:12.249Z,26.03
2018-09-03T13:03:39.667Z,29.60
2018-09-03T13:06:07.134Z,26.83
2018-09-03T13:08:34.466Z,25.73
2018-09-03T13:11:01.907Z,26.60
2018-09-03T13:13:29.388Z,24.90
2018-09-03T13:15:56.955Z,22.80
2018-09-03T13:18:25.064Z,22.90
2018-09-03T13:20:52.378Z,22.50
2018-09-03T13:23:19.677Z,21.47
2018-09-03T13:25:47.834Z,26.17
2018-09-03T13:28:16.563Z,23.90
2018-09-03T13:30:44.086Z,21.57
2018-09-03T13:33:12.469Z,25.97
2018-09-03T13:35:39.776Z,26.73
2018-09-03T13:38:07.060Z,21.43
2018-09-03T13:40:34.797Z,25.93
2018-09-03T13:43:02.031Z,25.07
2018-09-03T13:45:29.331Z,24.27
2018-09-03T13:47:58.015Z,27.60
2018-09-03T13:50:28.199Z,24.60
2018-09-03T13:52:59.891Z,31.10
2018-09-03T13:55:28.548Z,23.23
2018-09-03T13:57:57.169Z,20.60
2018-09-03T14:00:25.303Z,25.93
2018-09-03T14:02:52.858Z,22.27
2018-09-03T14:05:20.517Z,22.33
2018-09-03T14:07:48.435Z,20.93
2018-09-03T14:10:16.102Z,19.10
2018-09-03T14:12:43.776Z,20.23
2018-09-03T14:15:11.098Z,20.03
2018-09-03T14:17:39.718Z,18.70
2018-09-03T14:20:08.769Z,20.40
2018-09-03T14:22:36.042Z,29.27
2018-09-03T14:25:04.185Z,20.20
2018-09-03T14:27:33.321Z,17.13
2018-09-03T14:30:01.928Z,18.53
2018-09-03T14:32:29.882Z,17.10
2018-09-03T14:34:57.017Z,17.83
2018-09-03T14:37:24.501Z,19.90
2018-09-03T14:39:52.653Z,22.10
2018-09-03T14:42:20.797Z,18.47
2018-09-03T14:44:48.249Z,26.03
2018-09-03T14:47:15.771Z,25.27
2018-09-03T14:49:44.325Z,21.30
2018-09-03T14:52:12.624Z,18.30
2018-09-03T14:54:40.453Z,18.10
2018-09-03T14:57:07.749Z,17.97
2018-09-03T14:59:37.467Z,25.80
2018-09-03T15:02:08.115Z,27.63
2018-09-03T15:04:39.692Z,19.93
2018-09-03T15:07:07.203Z,19.73
2018-09-03T15:09:34.617Z,22.70
2018-09-03T15:12:02.417Z,19.33
2018-09-03T15:14:29.789Z,17.23
2018-09-03T15:16:59.076Z,16.17
2018-09-03T15:19:32.244Z,16.23
2018-09-03T15:22:01.152Z,15.50
2018-09-03T15:24:33.046Z,16.73
2018-09-03T15:27:00.600Z,16.07
2018-09-03T15:29:28.799Z,19.47
2018-09-03T15:31:57.361Z,19.47
2018-09-03T15:34:25.560Z,17.03
2018-09-03T15:36:53.301Z,16.80
2018-09-03T15:39:20.874Z,15.20
2018-09-03T15:41:48.143Z,16.63
2018-09-03T15:44:18.939Z,20.17
2018-09-03T15:46:46.965Z,17.20
2018-09-03T15:49:14.184Z,17.07
2018-09-03T15:51:41.365Z,18.10
2018-09-03T15:54:08.545Z,16.77
2018-09-03T15:56:37.758Z,14.93
2018-09-03T15:59:05.170Z,19.80
2018-09-03T16:01:32.363Z,18.40
2018-09-03T16:03:59.667Z,17.20
2018-09-03T16:06:27.499Z,18.73
2018-09-03T16:08:54.795Z,16.27
2018-09-03T16:11:22.181Z,16.40
2018-09-03T16:13:49.660Z,14.97
2018-09-03T16:16:17.068Z,16.33
2018-09-03T16:18:44.797Z,16.40
2018-09-03T16:21:13.479Z,14.70
2018-09-03T16:23:40.701Z,15.23
2018-09-03T16:26:08.090Z,15.13
2018-09-03T16:28:35.338Z,16.90
2018-09-03T16:31:03.629Z,14.27
2018-09-03T16:33:31.871Z,16.10
2018-09-03T16:36:00.563Z,15.60
2018-09-03T16:38:28.131Z,18.30
2018-09-03T16:40:55.498Z,14.70
2018-09-03T16:43:23.030Z,15.67
2018-09-03T16:45:50.262Z,14.20
2018-09-03T16:48:17.808Z,14.40
2018-09-03T16:50:45.209Z,15.13
2018-09-03T16:53:13.764Z,15.00
2018-09-03T16:55:41.573Z,15.60
2018-09-03T16:58:08.867Z,15.40
2018-09-03T17:00:36.290Z,15.87
2018-09-03T17:03:03.947Z,12.93
2018-09-03T17:05:31.490Z,12.40
2018-09-03T17:08:03.238Z,13.63
2018-09-03T17:10:30.874Z,14.20
2018-09-03T17:12:58.245Z,13.53
2018-09-03T17:15:25.576Z,13.10
2018-09-03T17:17:52.900Z,13.40
2018-09-03T17:20:20.173Z,14.07
2018-09-03T17:22:48.626Z,12.17
2018-09-03T17:25:16.513Z,13.70
2018-09-03T17:27:44.278Z,15.50
2018-09-03T17:30:11.902Z,14.67
2018-09-03T17:32:39.169Z,15.20
2018-09-03T17:35:06.383Z,14.47
2018-09-03T17:37:34.325Z,16.00
2018-09-03T17:40:01.993Z,12.57
2018-09-03T17:42:29.284Z,13.53
2018-09-03T17:44:56.616Z,14.50
2018-09-03T17:47:23.932Z,14.63
2018-09-03T17:49:52.145Z,14.43
2018-09-03T17:52:19.509Z,14.77
2018-09-03T17:54:47.909Z,15.50
2018-09-03T17:57:16.278Z,14.30
2018-09-03T17:59:43.532Z,20.10
2018-09-03T18:02:10.866Z,17.47
2018-09-03T18:04:38.232Z,18.27
2018-09-03T18:07:05.541Z,15.60
2018-09-03T18:09:32.902Z,14.83
2018-09-03T18:12:02.178Z,20.03
2018-09-03T18:14:29.455Z,14.40
2018-09-03T18:16:56.904Z,15.47
2018-09-03T18:19:24.269Z,15.47
2018-09-03T18:21:51.839Z,12.93
2018-09-03T18:24:19.161Z,16.20
2018-09-03T18:26:46.365Z,14.63
2018-09-03T18:29:13.621Z,14.40
2018-09-03T18:31:40.905Z,14.90
2018-09-03T18:34:08.153Z,14.13
2018-09-03T18:36:35.835Z,15.37
2018-09-03T18:39:04.252Z,16.67
2018-09-03T18:41:31.496Z,18.43
2018-09-03T18:43:58.770Z,15.37
2018-09-03T18:49:02.731Z,16.80
2018-09-03T18:51:30.425Z,15.30
2018-09-03T18:53:58.742Z,16.03
2018-09-03T18:56:27.133Z,15.40
2018-09-03T18:58:54.407Z,17.63
2018-09-03T19:01:21.684Z,14.67
2018-09-03T19:03:49.155Z,15.80
2018-09-03T19:06:17.324Z,15.37
2018-09-03T19:08:44.795Z,16.03
2018-09-03T19:11:12.109Z,15.27
2018-09-03T19:13:39.462Z,16.63
2018-09-03T19:16:07.101Z,19.60
2018-09-03T19:18:35.154Z,17.47
2018-09-03T19:21:02.386Z,16.60
2018-09-03T19:23:29.612Z,16.57
2018-09-03T19:25:57.012Z,16.60
2018-09-03T19:28:24.559Z,15.90
2018-09-03T19:30:51.966Z,17.50
2018-09-03T19:33:19.343Z,18.80
2018-09-03T19:35:46.707Z,16.23
2018-09-03T19:38:13.941Z,18.70
2018-09-03T19:40:48.815Z,19.57
2018-09-03T19:43:16.229Z,19.27
2018-09-03T19:45:43.564Z,21.43
2018-09-03T19:48:11.189Z,19.93
2018-09-03T19:50:38.665Z,20.67
2018-09-03T19:53:07.527Z,22.13
2018-09-03T19:55:35.129Z,18.87
2018-09-03T19:58:03.464Z,22.93
2018-09-03T20:00:30.745Z,25.50
2018-09-03T20:02:57.952Z,22.33
2018-09-03T20:05:25.540Z,24.27
2018-09-03T20:07:53.485Z,23.73
2018-09-03T20:10:20.823Z,26.30
2018-09-03T20:12:48.849Z,23.67
2018-09-03T20:15:26.882Z,23.20
2018-09-03T20:17:55.588Z,23.07
2018-09-03T20:20:23.898Z,43.00
2018-09-03T20:22:51.804Z,29.03
2018-09-03T20:25:19.038Z,42.97
2018-09-03T20:27:47.182Z,30.93
2018-09-03T20:30:14.348Z,28.33
2018-09-03T20:32:41.791Z,54.03
2018-09-03T20:35:09.109Z,33.20
2018-09-03T20:44:34.790Z,33.47
2018-09-03T20:47:02.672Z,29.17
2018-09-03T20:49:30.093Z,34.17
2018-09-03T20:51:58.380Z,26.60
2018-09-03T20:54:25.853Z,28.80
2018-09-03T20:56:54.004Z,28.63
2018-09-03T20:59:21.353Z,26.87
2018-09-03T21:01:48.660Z,32.23
2018-09-03T21:04:15.908Z,33.33
2018-09-03T21:06:43.902Z,27.80
2018-09-03T21:09:11.186Z,28.43
2018-09-03T21:11:39.355Z,37.77
2018-09-03T21:14:06.811Z,35.10
2018-09-03T21:16:34.826Z,35.40
2018-09-03T21:19:02.291Z,36.60
2018-09-03T21:21:29.766Z,40.37
2018-09-03T21:23:57.030Z,38.30
2018-09-03T21:26:24.461Z,32.43
2018-09-03T21:28:51.878Z,42.00
2018-09-03T21:31:19.186Z,31.37
2018-09-03T21:33:46.692Z,32.03
2018-09-03T21:36:14.068Z,37.00
2018-09-03T21:38:43.401Z,36.80
2018-09-03T21:41:10.933Z,40.43
2018-09-03T21:43:38.342Z,40.80
2018-09-03T21:46:06.435Z,35.80
2018-09-03T21:48:34.420Z,36.40
2018-09-03T21:51:02.283Z,32.73
2018-09-03T21:53:29.756Z,39.00
2018-09-03T21:55:57.091Z,37.57
2018-09-03T21:58:24.699Z,37.03
2018-09-03T22:00:52.852Z,41.53
2018-09-03T22:03:20.519Z,42.30
2018-09-03T22:05:47.816Z,35.47
2018-09-03T22:08:15.116Z,37.57
2018-09-03T22:10:42.562Z,37.17
2018-09-03T22:13:09.758Z,38.37
2018-09-03T22:15:38.502Z,36.77
2018-09-03T22:18:05.948Z,38.40
2018-09-03T22:20:33.455Z,36.07
2018-09-03T22:23:00.656Z,36.87
2018-09-03T22:25:29.939Z,32.50
2018-09-03T22:27:57.817Z,34.90
2018-09-03T22:30:25.314Z,34.83
2018-09-03T22:32:52.565Z,33.10
2018-09-03T22:35:19.886Z,35.80
2018-09-03T22:37:47.232Z,35.30
2018-09-03T22:40:15.426Z,37.13
2018-09-03T22:42:42.770Z,41.60
2018-09-03T22:45:09.918Z,38.40
2018-09-03T22:47:38.427Z,33.50
2018-09-03T22:50:06.231Z,38.80
2018-09-03T22:52:37.359Z,38.07
2018-09-03T22:55:06.650Z,37.10
2018-09-03T22:57:34.217Z,33.60
2018-09-03T23:00:01.574Z,37.10
2018-09-03T23:02:28.745Z,39.30
2018-09-03T23:04:56.531Z,32.57
2018-09-03T23:07:23.786Z,34.97
2018-09-03T23:09:50.990Z,35.77
2018-09-03T23:12:18.248Z,36.57
2018-09-03T23:14:45.493Z,43.83
2018-09-03T23:17:12.713Z,48.70
2018-09-03T23:19:40.018Z,38.47
2018-09-03T23:22:07.206Z,45.23
2018-09-03T23:24:34.685Z,40.83
2018-09-03T23:27:01.789Z,41.90
2018-09-03T23:29:29.023Z,37.67
2018-09-03T23:31:56.276Z,41.53
2018-09-03T23:34:23.500Z,49.17
2018-09-03T23:36:50.710Z,48.00
2018-09-03T23:39:17.977Z,49.50
2018-09-03T23:41:45.196Z,36.60
2018-09-03T23:44:12.866Z,36.73
2018-09-03T23:46:40.079Z,39.13
2018-09-03T23:49:07.288Z,40.63
2018-09-03T23:51:34.544Z,48.40
2018-09-03T23:54:01.758Z,37.90
2018-09-03T23:56:28.925Z,36.80
2018-09-03T23:58:56.141Z,43.63
